Time;durP1;ratioP1;P1;durP2;ratioP2;P2;SDS_P1;SDS_P2;PMS_P1;PMS_P2;Temp;Humidity;BMP_temperature;BMP_pressure;BME280_temperature;BME280_humidity;BME280_pressure;Samples;Min_cycle;Max_cycle;Signal;HPM_P1;HPM_P2
2021/01/07 00:01:42;;;;;;;19.60;7.85;;;3.80;79.30;;;;;;4919864;29;20035;-85
2021/01/07 00:04:08;;;;;;;12.60;7.35;;;3.80;79.30;;;;;;4920102;29;20027;-86
2021/01/07 00:06:34;;;;;;;11.05;7.07;;;3.80;79.30;;;;;;4904274;29;20032;-86
2021/01/07 00:09:00;;;;;;;10.30;7.13;;;3.80;79.30;;;;;;4904082;29;20485;-86
2021/01/07 00:11:26;;;;;;;9.98;6.55;;;3.90;79.30;;;;;;4919865;29;20482;-86
2021/01/07 00:13:52;;;;;;;10.82;6.80;;;3.80;79.20;;;;;;4919471;29;20082;-86
2021/01/07 00:16:18;;;;;;;13.95;7.80;;;3.80;79.20;;;;;;4920159;29;20430;-86
2021/01/07 00:18:44;;;;;;;11.82;7.63;;;3.90;79.20;;;;;;4903892;29;20028;-86
2021/01/07 00:21:11;;;;;;;11.15;7.22;;;3.80;79.20;;;;;;4919771;29;20546;-86
2021/01/07 00:23:36;;;;;;;10.82;6.82;;;3.80;79.20;;;;;;4903870;29;20060;-86
2021/01/07 00:26:02;;;;;;;10.30;6.82;;;3.90;79.20;;;;;;4903866;29;20374;-86
2021/01/07 00:28:27;;;;;;;12.52;7.35;;;3.80;79.20;;;;;;4903881;29;20031;-86
2021/01/07 00:30:53;;;;;;;12.52;8.50;;;3.90;79.20;;;;;;4902305;29;20035;-86
2021/01/07 00:33:19;;;;;;;14.07;8.25;;;3.90;79.20;;;;;;4919458;29;20485;-86
2021/01/07 00:35:45;;;;;;;15.90;8.90;;;3.80;79.10;;;;;;4936185;29;20028;-86
2021/01/07 00:40:46;;;;;;;15.65;9.18;;;3.90;79.30;;;;;;4918199;29;20055;-88
2021/01/07 00:43:12;;;;;;;13.07;8.40;;;3.80;79.30;;;;;;4903126;29;20513;-88
2021/01/07 00:45:37;;;;;;;15.30;9.85;;;3.80;79.20;;;;;;4887795;29;20047;-88
2021/01/07 00:48:04;;;;;;;14.57;8.90;;;3.80;79.30;;;;;;4902843;29;20024;-88
2021/01/07 00:50:29;;;;;;;13.73;9.60;;;3.90;79.40;;;;;;4903016;29;20039;-88
2021/01/07 00:52:55;;;;;;;13.85;9.45;;;3.80;79.30;;;;;;4903049;29;20036;-87
2021/01/07 00:55:20;;;;;;;14.10;8.52;;;3.80;79.30;;;;;;4902563;29;20040;-87
2021/01/07 00:57:46;;;;;;;12.30;8.40;;;3.80;79.20;;;;;;4887227;29;20107;-88
2021/01/07 01:00:15;;;;;;;14.55;9.45;;;3.80;79.20;;;;;;4902870;29;20063;-90
2021/01/07 01:02:41;;;;;;;15.35;9.57;;;3.90;79.30;;;;;;4919139;29;20032;-90
2021/01/07 01:05:07;;;;;;;16.33;10.20;;;3.80;79.30;;;;;;4919646;29;20034;-90
2021/01/07 01:07:34;;;;;;;14.35;9.57;;;3.80;79.40;;;;;;4902731;29;20709;-90
2021/01/07 01:09:59;;;;;;;16.05;9.85;;;3.90;79.40;;;;;;4902771;29;20028;-90
2021/01/07 01:12:25;;;;;;;16.95;9.48;;;3.80;79.30;;;;;;4903021;29;20118;-90
2021/01/07 01:14:51;;;;;;;14.90;9.00;;;3.90;79.40;;;;;;4902584;29;20524;-90
2021/01/07 01:17:17;;;;;;;14.25;9.45;;;3.80;79.40;;;;;;4902523;29;20103;-90
2021/01/07 01:19:43;;;;;;;14.02;9.20;;;3.90;79.40;;;;;;4902650;29;20033;-90
2021/01/07 01:22:10;;;;;;;13.23;8.50;;;3.80;79.40;;;;;;4902408;29;20119;-90
2021/01/07 01:24:35;;;;;;;12.85;8.63;;;3.80;79.40;;;;;;4918300;29;20032;-90
2021/01/07 01:27:02;;;;;;;16.00;9.25;;;3.90;79.50;;;;;;4902290;29;20039;-90
2021/01/07 01:29:28;;;;;;;14.02;9.32;;;3.80;79.40;;;;;;4902424;29;20020;-90
2021/01/07 01:31:54;;;;;;;14.70;8.48;;;3.80;79.40;;;;;;4902193;29;20035;-90
2021/01/07 01:34:21;;;;;;;15.73;9.15;;;3.80;79.40;;;;;;4902087;29;20085;-90
2021/01/07 01:36:47;;;;;;;13.38;7.90;;;3.80;79.40;;;;;;4902552;29;20067;-90
2021/01/07 01:39:15;;;;;;;15.70;9.38;;;3.80;79.40;;;;;;4903577;29;20074;-90
2021/01/07 01:41:45;;;;;;;13.23;8.75;;;3.80;79.40;;;;;;4917215;29;20159;-91
2021/01/07 01:44:11;;;;;;;13.52;9.10;;;3.80;79.40;;;;;;4917815;29;20488;-90
2021/01/07 01:46:37;;;;;;;14.73;9.27;;;3.80;79.40;;;;;;4917689;29;20067;-91
2021/01/07 01:49:06;;;;;;;13.52;9.27;;;3.80;79.50;;;;;;4917493;29;20056;-90
2021/01/07 01:51:33;;;;;;;13.45;8.07;;;3.80;79.50;;;;;;4917531;29;20030;-90
2021/01/07 01:53:59;;;;;;;14.02;8.73;;;3.80;79.50;;;;;;4917500;29;20036;-91
2021/01/07 01:56:26;;;;;;;14.20;8.52;;;3.80;79.50;;;;;;4933495;29;20024;-90
2021/01/07 01:58:52;;;;;;;13.48;8.68;;;3.80;79.50;;;;;;4917552;29;20406;-90
2021/01/07 02:01:19;;;;;;;15.07;9.10;;;3.70;79.40;;;;;;4901759;29;20029;-90
2021/01/07 02:03:45;;;;;;;12.88;8.00;;;3.80;79.50;;;;;;4933323;29;20029;-91
2021/01/07 02:06:16;;;;;;;12.25;8.20;;;3.70;79.50;;;;;;4917201;29;20028;-90
2021/01/07 02:08:43;;;;;;;12.52;8.18;;;3.70;79.40;;;;;;4917353;29;20076;-90
2021/01/07 02:11:13;;;;;;;12.27;8.02;;;3.80;79.50;;;;;;4917274;29;20028;-91
2021/01/07 02:13:39;;;;;;;12.65;8.63;;;3.70;79.40;;;;;;4917472;29;20070;-91
2021/01/07 02:16:06;;;;;;;14.20;9.23;;;3.70;79.40;;;;;;4917505;29;20095;-91
2021/01/07 02:18:32;;;;;;;12.70;8.13;;;3.70;79.50;;;;;;4917280;29;20043;-90
2021/01/07 02:21:03;;;;;;;12.10;8.27;;;3.70;79.50;;;;;;4917006;29;20040;-91
2021/01/07 02:23:29;;;;;;;14.63;9.27;;;3.70;79.50;;;;;;4918133;29;20035;-91
2021/01/07 02:25:55;;;;;;;12.23;8.32;;;3.70;79.50;;;;;;4917113;29;20074;-91
2021/01/07 02:28:20;;;;;;;12.50;8.10;;;3.70;79.50;;;;;;4917502;29;20028;-91
2021/01/07 02:30:47;;;;;;;14.93;8.75;;;3.70;79.40;;;;;;4917062;29;20111;-92
2021/01/07 02:33:13;;;;;;;14.15;9.45;;;3.70;79.50;;;;;;4918410;29;20035;-91
2021/01/07 02:35:39;;;;;;;13.40;8.82;;;3.70;80.10;;;;;;4917074;29;20124;-91
2021/01/07 02:38:05;;;;;;;13.00;8.43;;;3.70;79.50;;;;;;4917072;29;20052;-90
2021/01/07 02:40:31;;;;;;;14.55;8.55;;;3.70;79.50;;;;;;4916668;29;20058;-91
2021/01/07 02:42:57;;;;;;;13.35;8.07;;;3.70;79.60;;;;;;4916999;29;20039;-91
2021/01/07 02:45:23;;;;;;;13.57;8.48;;;3.70;79.50;;;;;;4917059;29;20542;-91
2021/01/07 02:47:49;;;;;;;16.17;9.20;;;3.70;79.50;;;;;;4932831;29;20032;-90
2021/01/07 02:50:14;;;;;;;13.57;9.15;;;3.70;79.60;;;;;;4932821;29;20046;-91
2021/01/07 02:52:40;;;;;;;12.90;8.07;;;3.70;79.60;;;;;;4902014;29;20075;-91
2021/01/07 02:55:06;;;;;;;15.48;8.98;;;3.60;79.60;;;;;;4905108;29;20032;-90
2021/01/07 02:57:32;;;;;;;13.07;8.57;;;3.60;79.60;;;;;;4905008;29;20032;-90
2021/01/07 02:59:57;;;;;;;14.98;9.68;;;3.70;79.60;;;;;;4921718;29;20036;-90
2021/01/07 03:02:23;;;;;;;15.20;9.23;;;3.60;79.60;;;;;;4920442;29;20028;-90
2021/01/07 03:04:49;;;;;;;14.00;8.77;;;3.60;79.70;;;;;;4920606;29;20133;-91
2021/01/07 03:07:15;;;;;;;14.25;9.45;;;3.70;79.70;;;;;;4920515;29;20024;-90
2021/01/07 03:09:44;;;;;;;12.90;8.70;;;3.60;79.60;;;;;;4920588;29;20040;-90
2021/01/07 03:12:15;;;;;;;16.75;9.93;;;3.70;79.80;;;;;;4920265;29;20087;-90
2021/01/07 03:14:41;;;;;;;14.60;9.45;;;3.70;79.80;;;;;;4920608;29;20290;-91
2021/01/07 03:17:07;;;;;;;18.88;11.05;;;3.60;79.80;;;;;;4920274;29;20368;-90
2021/01/07 03:19:32;;;;;;;16.95;10.57;;;3.60;79.80;;;;;;4920140;29;20028;-90
2021/01/07 03:21:58;;;;;;;16.23;11.13;;;3.70;79.90;;;;;;4904439;29;20032;-91
2021/01/07 03:24:24;;;;;;;18.30;11.88;;;3.60;79.90;;;;;;4904516;29;20032;-91
2021/01/07 03:26:49;;;;;;;19.25;11.60;;;3.60;79.80;;;;;;4904517;29;20024;-91
2021/01/07 03:29:15;;;;;;;18.35;12.43;;;3.70;79.90;;;;;;4920170;29;20039;-91
2021/01/07 03:31:41;;;;;;;20.98;13.65;;;3.70;79.90;;;;;;4903982;29;20474;-88
2021/01/07 03:34:06;;;;;;;20.63;13.13;;;3.70;80.00;;;;;;4903588;29;20032;-90
2021/01/07 03:36:32;;;;;;;19.77;12.80;;;3.60;80.00;;;;;;4887810;29;20028;-88
2021/01/07 03:38:58;;;;;;;19.30;13.05;;;3.60;80.10;;;;;;4903167;29;20410;-89
2021/01/07 03:41:23;;;;;;;21.85;13.13;;;3.60;80.20;;;;;;4903155;29;20036;-88
2021/01/07 03:43:49;;;;;;;20.80;13.18;;;3.60;80.20;;;;;;4903401;29;20031;-89
2021/01/07 03:46:14;;;;;;;20.85;12.63;;;3.70;80.30;;;;;;4903094;29;20034;-89
2021/01/07 03:48:40;;;;;;;20.90;13.82;;;3.60;80.20;;;;;;4887330;29;20025;-88
2021/01/07 03:51:05;;;;;;;20.70;13.30;;;3.70;80.30;;;;;;4902564;29;20435;-90
2021/01/07 03:53:31;;;;;;;22.27;14.40;;;3.70;80.30;;;;;;4903429;29;20060;-91
2021/01/07 03:55:59;;;;;;;22.83;13.63;;;3.70;80.30;;;;;;4887036;29;20032;-88
2021/01/07 03:58:25;;;;;;;22.27;14.25;;;3.70;80.40;;;;;;4886301;29;20424;-90
2021/01/07 04:00:51;;;;;;;21.42;13.43;;;3.70;80.50;;;;;;4903879;29;20032;-90
2021/01/07 04:03:16;;;;;;;23.25;14.88;;;3.70;80.50;;;;;;4885500;29;20029;-90
2021/01/07 04:05:42;;;;;;;22.95;14.23;;;3.70;80.60;;;;;;4884470;29;20032;-92
2021/01/07 04:08:08;;;;;;;22.10;13.27;;;3.70;80.70;;;;;;4868859;29;20040;-90
2021/01/07 04:10:33;;;;;;;22.23;13.73;;;3.70;80.80;;;;;;4868983;29;20052;-91
2021/01/07 04:12:59;;;;;;;22.00;13.85;;;3.70;80.90;;;;;;4885325;29;20076;-90
2021/01/07 04:15:25;;;;;;;21.30;13.70;;;3.70;81.00;;;;;;4885271;29;20032;-92
2021/01/07 04:17:52;;;;;;;23.48;14.27;;;3.70;80.90;;;;;;4884514;29;20056;-92
2021/01/07 04:20:18;;;;;;;23.45;14.48;;;3.70;80.90;;;;;;4884868;29;20029;-89
2021/01/07 04:22:46;;;;;;;24.52;15.65;;;3.70;81.10;;;;;;4884684;29;20066;-90
2021/01/07 04:25:12;;;;;;;23.30;13.47;;;3.70;81.00;;;;;;4883857;29;20028;-89
2021/01/07 04:27:38;;;;;;;23.25;14.80;;;3.70;81.60;;;;;;4883797;29;20021;-90
2021/01/07 04:30:05;;;;;;;27.60;16.17;;;3.70;81.00;;;;;;4883786;29;20033;-90
2021/01/07 04:32:30;;;;;;;24.08;15.15;;;3.70;81.10;;;;;;4871898;29;20052;-91
2021/01/07 04:34:56;;;;;;;24.48;15.05;;;3.70;81.30;;;;;;4884352;29;20096;-90
2021/01/07 04:37:22;;;;;;;24.10;14.73;;;3.70;81.30;;;;;;4868698;29;20555;-90
2021/01/07 04:39:47;;;;;;;27.58;16.30;;;3.70;81.30;;;;;;4892797;29;20055;-90
2021/01/07 04:42:13;;;;;;;24.88;15.45;;;3.70;81.50;;;;;;4902516;29;20074;-91
2021/01/07 04:44:41;;;;;;;24.45;14.70;;;3.70;81.60;;;;;;4902360;29;20028;-90
2021/01/07 04:47:07;;;;;;;25.90;15.65;;;3.70;81.70;;;;;;4902623;29;20466;-91
2021/01/07 04:49:32;;;;;;;23.40;14.50;;;3.70;81.80;;;;;;4902590;29;20024;-92
2021/01/07 04:51:59;;;;;;;27.58;14.80;;;3.70;81.80;;;;;;4902954;29;20565;-91
2021/01/07 04:54:25;;;;;;;22.83;14.68;;;3.70;81.80;;;;;;4901187;29;20058;-92
2021/01/07 04:56:51;;;;;;;21.02;12.95;;;3.70;81.80;;;;;;4902649;29;20039;-92
2021/01/07 04:59:17;;;;;;;20.02;12.45;;;3.70;81.90;;;;;;4902882;29;20028;-91
2021/01/07 05:01:43;;;;;;;20.92;11.95;;;3.70;81.80;;;;;;4882730;29;20090;-91
2021/01/07 05:04:10;;;;;;;17.13;10.35;;;3.70;81.80;;;;;;4902756;29;20096;-92
2021/01/07 05:06:36;;;;;;;19.08;11.73;;;3.70;81.70;;;;;;4898263;29;20077;-91
2021/01/07 05:09:08;;;;;;;21.42;12.88;;;3.70;81.70;;;;;;4883281;29;20033;-91
2021/01/07 05:11:34;;;;;;;19.50;11.43;;;3.70;81.70;;;;;;4883388;29;20036;-89
2021/01/07 05:14:07;;;;;;;19.67;11.48;;;3.70;81.70;;;;;;4887456;29;20470;-92
2021/01/07 05:16:33;;;;;;;17.50;10.63;;;3.70;81.60;;;;;;4886278;29;20622;-89
2021/01/07 05:19:02;;;;;;;16.75;10.65;;;3.70;81.50;;;;;;4886742;29;20067;-90
2021/01/07 05:21:28;;;;;;;16.83;10.45;;;3.70;81.50;;;;;;4896544;29;20107;-91
2021/01/07 05:23:54;;;;;;;15.85;10.57;;;3.70;81.40;;;;;;4901365;29;20064;-91
2021/01/07 05:26:21;;;;;;;16.33;10.93;;;3.70;81.30;;;;;;4900891;29;20028;-90
2021/01/07 05:28:52;;;;;;;15.65;10.60;;;3.70;81.30;;;;;;4894227;29;20032;-90
2021/01/07 05:31:21;;;;;;;14.93;9.80;;;3.70;81.40;;;;;;4883804;29;20059;-90
2021/01/07 05:33:47;;;;;;;15.60;10.20;;;3.70;81.40;;;;;;4878638;29;20040;-91
2021/01/07 05:36:25;;;;;;;17.58;11.10;;;3.70;81.30;;;;;;4899680;29;20036;-91
2021/01/07 05:38:53;;;;;;;17.60;11.63;;;3.70;81.30;;;;;;4901213;29;20032;-90
2021/01/07 05:41:20;;;;;;;17.80;11.67;;;3.70;81.40;;;;;;4900624;29;20028;-90
2021/01/07 05:43:56;;;;;;;18.00;12.15;;;3.70;81.50;;;;;;4900928;29;20076;-90
2021/01/07 05:46:24;;;;;;;17.77;11.10;;;3.70;81.60;;;;;;4901036;29;20124;-90
2021/01/07 05:48:53;;;;;;;15.73;10.65;;;3.70;81.60;;;;;;4888754;29;20029;-91
2021/01/07 05:51:28;;;;;;;14.00;9.77;;;3.70;81.50;;;;;;4898728;29;20130;-91
2021/01/07 05:54:33;;;;;;;12.25;8.70;;;3.70;81.50;;;;;;4900762;29;20036;-91
2021/01/07 05:57:03;;;;;;;13.40;9.25;;;3.70;81.40;;;;;;4899784;29;20040;-91
2021/01/07 05:59:31;;;;;;;12.07;8.73;;;3.70;81.30;;;;;;4900618;29;20566;-91
2021/01/07 06:02:02;;;;;;;12.77;9.05;;;3.80;81.40;;;;;;4883335;29;20067;-91
2021/01/07 06:04:32;;;;;;;14.45;9.13;;;3.70;81.20;;;;;;4897211;29;20027;-90
2021/01/07 06:06:59;;;;;;;14.38;9.73;;;3.70;81.20;;;;;;4881915;29;20478;-90
2021/01/07 06:09:28;;;;;;;12.27;8.70;;;3.70;81.20;;;;;;4892202;29;20143;-90
2021/01/07 06:11:59;;;;;;;12.02;8.73;;;3.70;81.10;;;;;;4900604;29;20027;-90
2021/01/07 06:14:26;;;;;;;11.88;8.45;;;3.80;81.20;;;;;;4900322;29;20111;-91
2021/01/07 06:16:56;;;;;;;13.15;9.38;;;3.70;81.10;;;;;;4899866;29;20126;-91
2021/01/07 06:19:40;;;;;;;12.65;9.32;;;3.70;81.10;;;;;;4900334;29;20142;-91
2021/01/07 06:22:15;;;;;;;15.50;10.52;;;3.70;81.00;;;;;;4900692;29;20083;-91
2021/01/07 06:24:43;;;;;;;13.25;9.60;;;3.70;81.00;;;;;;4900444;29;20047;-90
2021/01/07 06:27:19;;;;;;;13.68;10.15;;;3.70;81.00;;;;;;4900339;29;20138;-90
2021/01/07 06:29:45;;;;;;;14.23;10.43;;;3.70;81.00;;;;;;4900288;29;20037;-89
2021/01/07 06:32:11;;;;;;;16.70;11.38;;;3.70;81.00;;;;;;4884751;29;20043;-89
2021/01/07 06:34:45;;;;;;;16.48;11.10;;;3.70;81.10;;;;;;4893131;29;20035;-89
2021/01/07 06:37:10;;;;;;;17.70;11.50;;;3.70;81.10;;;;;;4891479;29;20149;-89
2021/01/07 06:39:43;;;;;;;15.63;10.95;;;3.70;81.10;;;;;;4849118;29;644714;-90
2021/01/07 06:42:18;;;;;;;16.20;11.68;;;3.70;81.10;;;;;;4893427;29;20033;-90
2021/01/07 06:44:45;;;;;;;16.80;11.63;;;3.70;81.10;;;;;;4915269;29;20036;-89
2021/01/07 06:47:21;;;;;;;16.17;11.63;;;3.70;81.20;;;;;;4896234;29;20039;-89
2021/01/07 06:49:50;;;;;;;18.67;13.05;;;3.70;81.20;;;;;;4899115;29;20131;-90
2021/01/07 06:52:20;;;;;;;16.88;12.00;;;3.70;81.30;;;;;;4897885;29;20095;-90
2021/01/07 06:54:46;;;;;;;17.98;11.52;;;3.60;81.40;;;;;;4940088;23;20051;-82
2021/01/07 06:57:14;;;;;;;16.52;11.15;;;3.60;81.40;;;;;;4937595;29;20027;-82
2021/01/07 07:00:00;;;;;;;17.40;11.93;;;3.60;81.50;;;;;;4948899;29;20039;-82
2021/01/07 07:02:27;;;;;;;17.38;10.73;;;3.60;81.60;;;;;;4918095;29;20528;-82
2021/01/07 07:05:01;;;;;;;19.33;12.45;;;3.60;81.60;;;;;;4939538;29;20051;-82
2021/01/07 07:07:39;;;;;;;20.00;12.85;;;3.60;81.80;;;;;;4934202;29;20028;-82
2021/01/07 07:10:23;;;;;;;19.80;12.38;;;3.60;82.10;;;;;;4951534;29;20389;-82
2021/01/07 07:12:50;;;;;;;17.17;10.88;;;3.60;82.10;;;;;;4939905;29;20124;-84
2021/01/07 07:15:22;;;;;;;15.43;10.95;;;3.50;82.00;;;;;;4933798;29;20496;-83
2021/01/07 07:17:51;;;;;;;19.92;12.52;;;3.50;82.00;;;;;;4940629;29;20117;-83
2021/01/07 07:20:26;;;;;;;;;;;3.60;82.00;;;;;;4946752;28;20039;-83
2021/01/07 07:22:52;;;;;;;18.35;11.88;;;3.60;81.90;;;;;;4945463;29;19919;-84
2021/01/07 07:25:25;;;;;;;15.38;10.27;;;3.50;81.80;;;;;;4931556;29;20553;-84
2021/01/07 07:27:56;;;;;;;17.60;11.43;;;3.50;81.90;;;;;;4913822;29;20036;-84
2021/01/07 07:30:28;;;;;;;20.15;13.27;;;3.50;82.00;;;;;;4928564;29;20032;-84
2021/01/07 07:32:55;;;;;;;24.95;14.73;;;3.50;82.20;;;;;;4934009;29;20032;-84
2021/01/07 07:35:26;;;;;;;22.00;13.60;;;3.50;82.50;;;;;;4944424;29;20043;-84
2021/01/07 07:37:53;;;;;;;20.85;13.38;;;3.50;82.50;;;;;;4947288;28;20028;-84
2021/01/07 07:40:39;;;;;;;19.33;13.63;;;3.50;82.50;;;;;;4955151;28;20027;-84
2021/01/07 07:43:07;;;;;;;23.33;15.07;;;3.50;82.60;;;;;;4940865;29;20027;-84
2021/01/07 07:45:34;;;;;;;20.80;12.05;;;3.50;82.70;;;;;;4945592;29;20028;-83
2021/01/07 07:48:01;;;;;;;20.15;12.38;;;3.50;82.70;;;;;;4945370;29;20110;-84
2021/01/07 07:50:29;;;;;;;18.90;12.02;;;3.50;82.60;;;;;;4954854;29;20031;-84
2021/01/07 07:53:08;;;;;;;19.38;12.48;;;3.50;82.60;;;;;;4954851;28;20031;-84
2021/01/07 07:55:41;;;;;;;20.13;11.63;;;3.50;82.50;;;;;;4957343;28;20051;-84
2021/01/07 07:58:14;;;;;;;18.23;11.90;;;3.50;82.40;;;;;;4954902;28;20034;-84
2021/01/07 08:00:53;;;;;;;18.70;12.23;;;3.60;82.50;;;;;;4972808;28;20031;-84
2021/01/07 08:03:32;;;;;;;18.42;11.77;;;3.50;82.40;;;;;;4975209;28;20396;-84
2021/01/07 08:05:59;;;;;;;17.17;10.75;;;3.50;82.50;;;;;;4973564;28;20551;-84
2021/01/07 08:08:27;;;;;;;18.52;11.02;;;3.50;82.50;;;;;;4974488;28;20030;-84
2021/01/07 08:10:54;;;;;;;19.30;11.40;;;3.60;82.50;;;;;;4958126;28;20030;-84
2021/01/07 08:13:21;;;;;;;20.15;12.80;;;3.50;82.50;;;;;;4956005;28;20059;-84
2021/01/07 08:15:48;;;;;;;15.88;10.43;;;3.60;82.80;;;;;;4949783;28;20473;-84
2021/01/07 08:18:19;;;;;;;16.60;11.20;;;3.60;82.80;;;;;;4952553;28;20027;-84
2021/01/07 08:20:46;;;;;;;18.55;11.85;;;3.60;82.70;;;;;;4947902;28;20034;-82
2021/01/07 08:23:13;;;;;;;20.48;13.23;;;3.60;82.70;;;;;;4938011;28;20555;-83
2021/01/07 08:25:39;;;;;;;17.65;11.85;;;3.60;82.80;;;;;;4948931;29;20035;-83
2021/01/07 08:28:57;;;;;;;17.38;11.07;;;3.60;82.80;;;;;;4926501;28;20023;-83
2021/01/07 08:31:27;;;;;;;21.73;12.90;;;3.60;82.90;;;;;;4935026;28;20093;-87
2021/01/07 08:33:55;;;;;;;19.30;11.90;;;3.60;82.90;;;;;;4946271;28;20082;-86
2021/01/07 08:36:21;;;;;;;20.67;13.38;;;3.60;82.90;;;;;;4955893;28;20424;-86
2021/01/07 08:38:52;;;;;;;23.35;14.20;;;3.60;83.10;;;;;;4973590;28;20035;-86
2021/01/07 08:41:20;;;;;;;22.75;14.52;;;3.60;83.10;;;;;;4952762;28;20559;-86
2021/01/07 08:43:47;;;;;;;20.48;12.35;;;3.60;83.20;;;;;;4965833;28;20094;-85
2021/01/07 08:46:15;;;;;;;20.92;13.32;;;3.60;83.10;;;;;;4944508;28;20046;-86
2021/01/07 08:48:41;;;;;;;21.30;13.90;;;3.60;83.70;;;;;;4961882;28;20040;-86
2021/01/07 08:51:20;;;;;;;20.27;13.02;;;3.60;83.10;;;;;;4936865;29;20402;-86
2021/01/07 08:53:46;;;;;;;;;;;3.60;83.10;;;;;;4940347;29;20034;-87
2021/01/07 08:56:33;;;;;;;23.65;13.88;;;3.60;83.00;;;;;;4941661;28;19914;-86
2021/01/07 08:59:29;;;;;;;23.77;14.80;;;3.60;83.00;;;;;;4931844;29;20437;-87
2021/01/07 09:01:56;;;;;;;26.10;15.60;;;3.60;83.10;;;;;;4969110;28;20105;-86
2021/01/07 09:04:34;;;;;;;23.85;14.43;;;3.70;83.30;;;;;;4962002;28;20023;-89
2021/01/07 09:07:14;;;;;;;22.63;13.93;;;3.70;83.20;;;;;;4955534;29;20106;-87
2021/01/07 09:09:50;;;;;;;25.15;14.63;;;3.70;83.20;;;;;;4949280;28;20023;-86
2021/01/07 09:12:34;;;;;;;19.10;13.35;;;3.70;83.10;;;;;;4973366;28;20488;-86
2021/01/07 09:15:06;;;;;;;20.05;12.88;;;3.70;83.00;;;;;;4953318;28;20038;-86
2021/01/07 09:17:44;;;;;;;22.63;14.30;;;3.70;83.00;;;;;;4958525;28;20038;-87
2021/01/07 09:20:13;;;;;;;20.53;13.77;;;3.70;83.10;;;;;;4939785;29;20122;-87
2021/01/07 09:22:39;;;;;;;21.35;13.98;;;3.80;83.10;;;;;;4939923;28;20318;-86
2021/01/07 09:25:07;;;;;;;21.45;13.07;;;3.80;83.10;;;;;;4959158;28;20051;-86
2021/01/07 09:27:32;;;;;;;20.92;13.52;;;3.80;83.20;;;;;;4953882;28;20501;-86
2021/01/07 09:29:58;;;;;;;23.52;14.25;;;3.80;83.20;;;;;;4957406;28;20039;-88
2021/01/07 09:32:24;;;;;;;21.35;13.60;;;3.80;83.20;;;;;;4937779;29;20038;-88
2021/01/07 09:34:50;;;;;;;18.48;12.52;;;3.90;83.20;;;;;;4936968;29;20105;-88
2021/01/07 09:37:22;;;;;;;23.63;14.20;;;3.90;83.20;;;;;;4953781;29;20425;-88
2021/01/07 09:39:50;;;;;;;23.40;14.52;;;3.90;83.20;;;;;;4942687;28;20034;-88
2021/01/07 09:42:18;;;;;;;27.27;16.85;;;3.90;83.20;;;;;;4944565;28;20515;-88
2021/01/07 09:44:44;;;;;;;23.52;15.38;;;3.90;83.30;;;;;;4941270;28;20050;-88
2021/01/07 09:47:10;;;;;;;26.05;15.70;;;3.90;83.30;;;;;;4956391;28;20054;-88
2021/01/07 09:49:36;;;;;;;24.92;16.10;;;3.90;83.50;;;;;;4928395;29;20389;-88
2021/01/07 09:52:03;;;;;;;22.88;15.00;;;3.90;83.50;;;;;;4920422;29;20044;-88
2021/01/07 09:54:29;;;;;;;24.00;15.27;;;4.00;83.70;;;;;;4918754;29;20088;-88
2021/01/07 09:56:56;;;;;;;22.08;14.60;;;4.00;83.60;;;;;;4918695;29;20036;-88
2021/01/07 09:59:23;;;;;;;22.95;15.25;;;4.00;83.70;;;;;;4922593;28;20034;-88
2021/01/07 10:01:57;;;;;;;27.88;17.25;;;4.00;83.70;;;;;;4920053;28;20039;-88
2021/01/07 10:04:23;;;;;;;22.10;15.75;;;4.00;84.00;;;;;;4935150;28;20036;-88
2021/01/07 10:06:49;;;;;;;22.33;14.60;;;4.00;84.00;;;;;;4965865;28;20421;-88
2021/01/07 10:09:16;;;;;;;21.98;14.50;;;4.00;84.00;;;;;;4942853;28;20019;-88
2021/01/07 10:11:42;;;;;;;20.77;14.00;;;4.00;83.80;;;;;;4935678;29;20485;-89
2021/01/07 10:14:07;;;;;;;19.40;13.15;;;4.10;83.80;;;;;;4935742;28;20086;-89
2021/01/07 10:16:33;;;;;;;19.25;13.20;;;4.10;83.90;;;;;;4923244;28;20054;-89
2021/01/07 10:18:59;;;;;;;20.48;13.73;;;4.10;83.90;;;;;;4924703;28;20449;-88
2021/01/07 10:21:26;;;;;;;17.80;12.35;;;4.10;84.00;;;;;;4945015;28;20046;-89
2021/01/07 10:23:52;;;;;;;18.75;12.68;;;4.10;83.90;;;;;;4936097;28;20035;-88
2021/01/07 10:26:19;;;;;;;16.27;11.70;;;4.20;84.00;;;;;;4941448;28;20039;-88
2021/01/07 10:28:47;;;;;;;18.02;12.95;;;4.20;83.90;;;;;;4957101;28;20019;-88
2021/01/07 10:31:15;;;;;;;17.70;12.10;;;4.20;83.90;;;;;;4940845;28;20034;-88
2021/01/07 10:33:42;;;;;;;16.38;11.25;;;4.20;84.00;;;;;;4941213;28;20372;-88
2021/01/07 10:36:09;;;;;;;16.48;11.70;;;4.20;84.00;;;;;;4957029;28;20082;-88
2021/01/07 10:38:38;;;;;;;18.00;12.05;;;4.30;84.10;;;;;;4956817;28;20022;-88
2021/01/07 10:41:06;;;;;;;16.08;11.00;;;4.20;84.40;;;;;;4948344;29;20038;-88
2021/01/07 10:43:32;;;;;;;16.75;12.23;;;4.30;84.60;;;;;;4955601;29;20028;-89
2021/01/07 10:45:58;;;;;;;15.70;11.13;;;4.30;84.60;;;;;;4956809;28;20023;-88
2021/01/07 10:48:27;;;;;;;17.52;11.45;;;4.30;84.60;;;;;;4922420;29;20087;-88
2021/01/07 10:50:53;;;;;;;17.95;12.07;;;4.30;84.70;;;;;;4922823;29;20122;-88
2021/01/07 10:53:46;;;;;;;16.08;11.00;;;4.30;84.70;;;;;;4922479;28;20476;-88
2021/01/07 10:56:30;;;;;;;15.32;10.00;;;4.30;84.90;;;;;;4938288;29;20074;-88
2021/01/07 10:59:07;;;;;;;14.45;9.57;;;4.30;84.90;;;;;;4938226;29;20469;-88
2021/01/07 11:02:00;;;;;;;15.73;10.10;;;4.40;84.80;;;;;;4938489;29;20036;-88
2021/01/07 11:05:05;;;;;;;14.60;10.15;;;4.40;84.90;;;;;;4938401;29;20097;-88
2021/01/07 11:07:52;;;;;;;12.27;8.27;;;4.40;84.90;;;;;;4919993;28;20481;-88
2021/01/07 11:10:18;;;;;;;13.77;9.20;;;4.40;85.00;;;;;;4945111;29;20027;-88
2021/01/07 11:13:01;;;;;;;14.20;9.25;;;4.40;85.00;;;;;;4922854;28;20374;-88
2021/01/07 11:15:28;;;;;;;11.90;8.30;;;4.40;85.30;;;;;;4941733;29;20466;-88
2021/01/07 11:18:14;;;;;;;10.90;7.53;;;4.40;85.30;;;;;;4925730;29;20126;-88
2021/01/07 11:20:48;;;;;;;13.07;8.25;;;4.40;85.30;;;;;;4941946;29;20042;-88
2021/01/07 11:23:14;;;;;;;12.13;8.27;;;4.40;85.30;;;;;;4958904;29;20482;-88
2021/01/07 11:25:40;;;;;;;12.80;8.07;;;4.50;86.10;;;;;;4925046;29;20507;-86
2021/01/07 11:28:06;;;;;;;11.57;7.60;;;4.50;85.40;;;;;;4941064;28;20102;-85
2021/01/07 11:30:33;;;;;;;10.38;6.85;;;4.50;85.40;;;;;;4948825;29;20485;-85
2021/01/07 11:33:02;;;;;;;10.73;7.60;;;4.50;85.30;;;;;;4939516;29;20051;-86
2021/01/07 11:35:29;;;;;;;10.18;6.93;;;4.50;85.30;;;;;;4923840;29;20055;-86
2021/01/07 11:38:10;;;;;;;7.93;5.63;;;4.50;85.20;;;;;;4957193;29;20035;-86
2021/01/07 11:40:43;;;;;;;10.25;6.93;;;4.60;85.10;;;;;;4938316;28;20045;-86
2021/01/07 11:43:12;;;;;;;12.27;8.50;;;4.60;85.10;;;;;;4920381;29;20504;-85
2021/01/07 11:45:39;;;;;;;10.45;7.30;;;4.60;85.20;;;;;;4942447;29;20034;-85
2021/01/07 11:48:07;;;;;;;9.68;6.60;;;4.60;85.30;;;;;;4956610;29;20122;-85
2021/01/07 11:50:36;;;;;;;11.02;6.72;;;4.60;85.30;;;;;;4920521;29;20399;-86
2021/01/07 11:53:04;;;;;;;9.80;6.50;;;4.60;85.30;;;;;;4954595;29;20063;-86
2021/01/07 11:55:33;;;;;;;10.48;7.43;;;4.60;85.30;;;;;;4920258;29;20056;-86
2021/01/07 11:57:59;;;;;;;8.48;5.93;;;4.60;85.90;;;;;;4937550;29;20083;-85
2021/01/07 12:00:26;;;;;;;9.95;6.80;;;4.60;85.30;;;;;;4920207;29;20035;-86
2021/01/07 12:02:53;;;;;;;9.15;6.25;;;4.60;85.30;;;;;;4937198;29;20040;-85
2021/01/07 12:05:22;;;;;;;9.95;6.63;;;4.70;85.40;;;;;;4937024;29;20537;-85
2021/01/07 12:07:59;;;;;;;9.55;6.53;;;4.60;85.30;;;;;;4937499;29;20111;-85
2021/01/07 12:10:27;;;;;;;10.40;6.93;;;4.70;85.30;;;;;;4934392;29;20031;-86
2021/01/07 12:13:15;;;;;;;11.27;7.53;;;4.60;85.30;;;;;;4934155;29;20039;-84
2021/01/07 12:15:44;;;;;;;10.55;7.22;;;4.70;85.50;;;;;;4932102;29;20528;-86
2021/01/07 12:18:11;;;;;;;12.43;8.45;;;4.70;85.40;;;;;;4933077;29;20476;-84
2021/01/07 12:20:37;;;;;;;10.88;7.53;;;4.70;85.50;;;;;;4928423;29;20032;-85
2021/01/07 12:23:04;;;;;;;11.48;7.60;;;4.70;85.60;;;;;;4934985;29;20036;-85
2021/01/07 12:25:31;;;;;;;11.75;8.05;;;4.70;85.60;;;;;;4935090;29;20036;-86
2021/01/07 12:27:57;;;;;;;13.30;9.25;;;4.70;85.50;;;;;;4935512;29;20028;-86
2021/01/07 12:30:24;;;;;;;9.80;7.25;;;4.70;85.50;;;;;;4933381;29;20040;-85
2021/01/07 12:33:17;;;;;;;13.00;8.27;;;4.70;85.50;;;;;;4936511;29;20036;-85
2021/01/07 12:35:59;;;;;;;11.70;8.35;;;4.80;85.60;;;;;;4935365;29;20027;-84
2021/01/07 12:38:50;;;;;;;13.98;9.48;;;4.80;85.60;;;;;;4935291;29;20059;-85
2021/01/07 12:41:20;;;;;;;13.65;9.80;;;4.80;85.50;;;;;;4936233;29;20103;-83
2021/01/07 12:43:51;;;;;;;15.63;11.40;;;4.80;85.50;;;;;;4935752;29;20024;-85
2021/01/07 12:46:22;;;;;;;13.13;10.15;;;4.80;85.50;;;;;;4933446;29;20063;-85
2021/01/07 12:48:49;;;;;;;12.40;9.43;;;4.80;85.60;;;;;;4936484;29;20028;-85
2021/01/07 12:51:15;;;;;;;13.05;9.32;;;4.80;85.50;;;;;;4918927;29;20123;-84
2021/01/07 12:54:01;;;;;;;13.52;9.65;;;4.80;85.50;;;;;;4967629;23;20940;-90
2021/01/07 12:56:50;;;;;;;12.60;9.30;;;4.90;85.60;;;;;;4938404;29;20268;-91